Time;durP1;ratioP1;P1;durP2;ratioP2;P2;SDS_P1;SDS_P2;PMS_P1;PMS_P2;Temp;Humidity;BMP_temperature;BMP_pressure;BME280_temperature;BME280_humidity;BME280_pressure;Samples;Min_cycle;Max_cycle;Signal;HPM_P1;HPM_P2
2023/05/26 00:00:27;;;;;;;15.20;3.70;;;9.40;99.90;;;;;;4964404;28;20237;-70
2023/05/26 00:02:56;;;;;;;15.45;4.07;;;9.40;99.90;;;;;;4974529;28;20446;-71
2023/05/26 00:05:21;;;;;;;12.68;3.25;;;9.40;99.90;;;;;;4969215;28;20103;-70
2023/05/26 00:07:47;;;;;;;20.17;3.23;;;9.40;99.90;;;;;;4974607;28;20822;-70
2023/05/26 00:10:13;;;;;;;25.58;3.33;;;9.40;99.90;;;;;;4972017;28;20438;-70
2023/05/26 00:12:39;;;;;;;16.85;3.33;;;9.40;99.90;;;;;;4971788;28;20141;-70
2023/05/26 00:15:06;;;;;;;11.52;2.40;;;9.40;99.90;;;;;;4971535;28;20046;-70
2023/05/26 00:17:31;;;;;;;;;;;9.30;99.90;;;;;;4983026;28;20109;-70
2023/05/26 00:20:00;;;;;;;26.95;3.25;;;9.30;99.90;;;;;;4983685;28;20424;-72
2023/05/26 00:22:29;;;;;;;15.90;3.28;;;9.30;99.90;;;;;;4987021;28;20042;-72
2023/05/26 00:24:55;;;;;;;15.55;3.15;;;9.30;99.90;;;;;;4807351;28;20541;-72
2023/05/26 00:27:22;;;;;;;18.70;3.08;;;9.30;99.90;;;;;;5002544;28;20042;-72
2023/05/26 00:29:48;;;;;;;13.02;2.88;;;9.30;99.90;;;;;;4899640;28;20407;-71
2023/05/26 00:32:16;;;;;;;15.38;3.38;;;9.30;99.90;;;;;;4926112;28;20041;-74
2023/05/26 00:34:42;;;;;;;15.70;3.30;;;9.30;99.90;;;;;;4978719;28;20085;-73
2023/05/26 00:37:09;;;;;;;8.32;2.97;;;9.30;99.90;;;;;;4964906;28;20300;-72
2023/05/26 00:39:35;;;;;;;15.32;3.25;;;9.30;99.90;;;;;;4796153;28;20418;-72
2023/05/26 00:42:11;;;;;;;14.25;2.63;;;9.30;99.90;;;;;;4815803;28;20534;-72
2023/05/26 00:44:53;;;;;;;14.73;3.25;;;9.20;99.90;;;;;;4842675;28;20491;-72
2023/05/26 00:49:58;;;;;;;13.82;3.42;;;9.20;99.90;;;;;;1429097;26;20293;-80
2023/05/26 00:52:28;;;;;;;19.85;3.08;;;9.20;99.90;;;;;;4837237;28;20374;-81
2023/05/26 00:54:57;;;;;;;14.13;3.25;;;9.20;99.90;;;;;;4844795;28;20733;-81
2023/05/26 00:57:23;;;;;;;17.88;3.45;;;9.30;99.90;;;;;;4846144;28;20320;-81
2023/05/26 00:59:49;;;;;;;18.13;3.50;;;9.20;99.90;;;;;;4845766;28;20362;-82
2023/05/26 01:02:17;;;;;;;15.15;2.53;;;9.20;99.90;;;;;;4846269;28;20396;-82
2023/05/26 01:04:43;;;;;;;14.27;3.30;;;9.10;99.90;;;;;;4852646;28;20810;-81
2023/05/26 01:07:09;;;;;;;12.52;2.15;;;9.20;99.90;;;;;;4842365;28;20346;-81
2023/05/26 01:09:35;;;;;;;16.92;3.28;;;9.20;99.90;;;;;;4852918;28;20393;-81
2023/05/26 01:12:08;;;;;;;14.32;3.15;;;9.10;99.90;;;;;;4857033;28;20371;-80
2023/05/26 01:14:44;;;;;;;14.63;2.70;;;9.20;99.90;;;;;;4861572;28;20878;-81
2023/05/26 01:17:22;;;;;;;13.68;3.47;;;9.20;99.90;;;;;;4837063;29;20385;-81
2023/05/26 01:20:07;;;;;;;13.07;2.92;;;9.20;99.90;;;;;;4836447;28;20370;-81
2023/05/26 01:22:47;;;;;;;15.63;3.00;;;9.10;99.90;;;;;;4844957;28;20444;-81
2023/05/26 01:25:37;;;;;;;18.35;3.85;;;9.10;99.90;;;;;;4861189;28;20917;-81
2023/05/26 01:28:32;;;;;;;12.57;2.53;;;9.10;99.90;;;;;;4868125;28;20491;-79
2023/05/26 01:30:58;;;;;;;13.93;3.22;;;9.10;99.90;;;;;;4951019;28;20166;-82
2023/05/26 01:33:24;;;;;;;11.90;2.80;;;9.10;99.90;;;;;;4954110;28;20190;-83
2023/05/26 01:35:49;;;;;;;15.03;3.50;;;9.00;99.90;;;;;;4957544;28;20194;-83
2023/05/26 01:38:16;;;;;;;13.47;3.40;;;9.00;99.90;;;;;;4952526;28;20074;-82
2023/05/26 01:40:43;;;;;;;;;;;9.00;99.90;;;;;;4957499;28;20356;-84
2023/05/26 01:43:23;;;;;;;19.00;3.83;;;9.00;99.90;;;;;;4951854;28;20210;-83
2023/05/26 01:46:07;;;;;;;14.50;3.30;;;9.00;99.90;;;;;;4954188;28;20042;-82
2023/05/26 01:48:40;;;;;;;13.75;2.88;;;9.00;99.90;;;;;;4949583;28;20043;-82
2023/05/26 01:51:06;;;;;;;10.50;3.00;;;9.00;99.90;;;;;;4980334;28;20075;-83
2023/05/26 01:53:35;;;;;;;14.32;2.72;;;9.00;99.90;;;;;;4962562;28;20171;-82
2023/05/26 01:56:01;;;;;;;24.60;4.07;;;8.90;99.90;;;;;;4967648;28;20046;-83
2023/05/26 01:58:29;;;;;;;19.17;3.30;;;8.90;99.90;;;;;;4966662;28;20105;-83
2023/05/26 02:00:54;;;;;;;;;;;8.90;99.90;;;;;;4949971;28;20441;-83
2023/05/26 02:03:20;;;;;;;21.65;3.45;;;8.90;99.90;;;;;;4965311;28;19933;-83
2023/05/26 02:05:46;;;;;;;21.05;3.72;;;8.90;99.90;;;;;;4963534;28;20510;-85
2023/05/26 02:08:12;;;;;;;9.90;2.85;;;8.90;99.90;;;;;;4944681;28;20093;-83
2023/05/26 02:10:39;;;;;;;24.90;3.10;;;8.80;99.90;;;;;;4968453;28;20035;-83
2023/05/26 02:13:05;;;;;;;14.32;2.92;;;8.80;99.90;;;;;;4968211;28;20051;-84
2023/05/26 02:15:31;;;;;;;16.88;3.28;;;8.80;99.90;;;;;;4969168;28;20049;-84
2023/05/26 02:17:57;;;;;;;11.68;3.00;;;8.80;99.90;;;;;;4967854;28;20050;-83
2023/05/26 02:20:26;;;;;;;16.10;2.90;;;8.80;99.90;;;;;;4952901;28;20046;-83
2023/05/26 02:22:52;;;;;;;11.95;2.95;;;8.80;99.90;;;;;;4970944;28;20065;-82
2023/05/26 02:25:18;;;;;;;14.30;2.67;;;8.70;99.90;;;;;;4953881;28;20117;-84
2023/05/26 02:27:43;;;;;;;15.70;3.43;;;8.70;99.90;;;;;;4969443;28;20294;-84
2023/05/26 02:30:11;;;;;;;19.10;2.80;;;8.70;99.90;;;;;;4968650;28;20312;-82
2023/05/26 02:32:38;;;;;;;16.88;3.15;;;8.70;99.90;;;;;;4977368;28;20046;-81
2023/05/26 02:35:04;;;;;;;15.77;3.20;;;8.70;99.90;;;;;;4951787;28;20130;-83
2023/05/26 02:37:32;;;;;;;18.92;2.90;;;8.70;99.90;;;;;;4965850;28;20133;-82
2023/05/26 02:39:58;;;;;;;15.57;3.03;;;8.70;99.90;;;;;;4969372;28;20422;-82
2023/05/26 02:42:23;;;;;;;17.57;2.57;;;8.70;99.90;;;;;;4964515;28;20049;-81
2023/05/26 02:44:50;;;;;;;13.67;2.67;;;8.60;99.90;;;;;;4968972;28;20450;-79
2023/05/26 02:47:16;;;;;;;23.27;2.80;;;8.60;99.90;;;;;;4969052;28;20042;-82
2023/05/26 02:49:42;;;;;;;18.17;2.95;;;8.60;99.90;;;;;;4967521;28;20098;-80
2023/05/26 02:52:08;;;;;;;13.77;3.55;;;8.60;99.90;;;;;;4969599;28;20464;-83
2023/05/26 02:54:36;;;;;;;13.32;2.58;;;8.60;99.90;;;;;;4969964;28;20042;-81
2023/05/26 02:57:02;;;;;;;15.25;3.15;;;8.60;99.90;;;;;;4968705;28;20049;-83
2023/05/26 02:59:28;;;;;;;17.40;2.70;;;8.50;99.90;;;;;;4984941;28;20046;-82
2023/05/26 03:01:56;;;;;;;16.00;2.80;;;8.50;99.90;;;;;;4967340;28;20043;-79
2023/05/26 03:04:22;;;;;;;21.47;3.33;;;8.50;99.90;;;;;;4970317;28;20565;-81
2023/05/26 03:06:47;;;;;;;17.17;3.07;;;8.50;99.90;;;;;;4965389;28;20040;-82
2023/05/26 03:09:13;;;;;;;11.80;2.30;;;8.50;99.90;;;;;;4964995;28;20041;-80
2023/05/26 03:11:38;;;;;;;19.47;2.37;;;8.50;99.90;;;;;;4967280;28;20049;-83
2023/05/26 03:14:05;;;;;;;15.33;2.80;;;8.50;99.90;;;;;;4955541;28;20101;-83
2023/05/26 03:16:30;;;;;;;13.52;2.58;;;8.50;99.90;;;;;;4970533;28;20128;-83
2023/05/26 03:18:56;;;;;;;15.70;3.00;;;8.50;99.90;;;;;;4961111;28;20070;-81
2023/05/26 03:21:21;;;;;;;13.70;2.53;;;8.50;99.90;;;;;;4954852;28;20046;-82
2023/05/26 03:23:47;;;;;;;10.73;3.03;;;8.50;99.90;;;;;;4970531;28;20038;-82
2023/05/26 03:26:13;;;;;;;25.87;3.13;;;8.40;99.90;;;;;;4952133;28;20059;-80
2023/05/26 03:28:39;;;;;;;16.90;2.70;;;8.40;99.90;;;;;;4969450;28;20498;-83
2023/05/26 03:31:04;;;;;;;13.97;2.53;;;8.40;99.90;;;;;;4954850;28;20042;-83
2023/05/26 03:33:33;;;;;;;17.90;2.90;;;8.40;99.90;;;;;;4968985;28;20042;-84
2023/05/26 03:36:00;;;;;;;15.87;2.40;;;8.30;99.90;;;;;;4970326;28;20050;-83
2023/05/26 03:38:25;;;;;;;13.40;3.42;;;8.30;99.90;;;;;;4968331;28;20608;-83
2023/05/26 03:40:51;;;;;;;16.93;2.80;;;8.40;99.90;;;;;;4971269;28;20090;-84
2023/05/26 03:43:16;;;;;;;14.97;2.93;;;8.30;99.90;;;;;;4953153;28;20418;-83
2023/05/26 03:45:42;;;;;;;10.73;2.33;;;8.30;99.90;;;;;;4985639;28;20498;-83
2023/05/26 03:48:14;;;;;;;16.47;3.07;;;8.30;99.90;;;;;;4953210;28;20086;-82
2023/05/26 03:50:41;;;;;;;14.20;2.80;;;8.30;99.90;;;;;;4969267;28;20463;-83
2023/05/26 03:53:07;;;;;;;17.55;3.42;;;8.30;99.90;;;;;;4971320;28;20097;-83
2023/05/26 03:55:33;;;;;;;19.30;4.03;;;8.30;99.90;;;;;;4969884;28;20090;-82
2023/05/26 03:57:59;;;;;;;13.37;3.60;;;8.30;99.90;;;;;;4970083;28;20533;-81
2023/05/26 04:00:32;;;;;;;13.85;2.60;;;8.30;99.90;;;;;;4970854;28;20407;-83
2023/05/26 04:02:58;;;;;;;14.73;2.72;;;8.30;99.90;;;;;;4987512;28;20410;-80
2023/05/26 04:05:24;;;;;;;17.95;2.67;;;8.30;99.90;;;;;;4965360;28;20086;-81
2023/05/26 04:07:50;;;;;;;14.30;2.85;;;8.30;99.90;;;;;;4965956;28;20449;-81
2023/05/26 04:10:16;;;;;;;11.68;2.58;;;8.30;99.90;;;;;;4947056;28;20049;-80
2023/05/26 04:12:42;;;;;;;13.73;3.13;;;8.30;99.90;;;;;;4970095;28;20087;-82
2023/05/26 04:15:11;;;;;;;12.63;2.60;;;8.30;99.90;;;;;;4968156;28;20425;-81
2023/05/26 04:17:37;;;;;;;16.17;3.00;;;8.40;99.90;;;;;;4970610;28;20437;-81
2023/05/26 04:20:10;;;;;;;18.03;2.63;;;8.40;99.90;;;;;;4969046;28;20042;-81
2023/05/26 04:22:40;;;;;;;13.75;3.05;;;8.40;99.90;;;;;;4971067;28;20118;-82
2023/05/26 04:25:07;;;;;;;12.63;2.80;;;8.50;99.90;;;;;;4969841;28;20058;-81
2023/05/26 04:27:35;;;;;;;11.32;2.88;;;8.50;99.90;;;;;;4969251;28;21869;-82
2023/05/26 04:30:02;;;;;;;16.10;2.85;;;8.60;99.90;;;;;;4970370;28;20046;-81
2023/05/26 04:32:28;;;;;;;16.10;3.00;;;8.60;99.90;;;;;;4967982;28;20146;-82
2023/05/26 04:34:55;;;;;;;9.88;2.65;;;8.60;99.90;;;;;;4965537;28;20124;-80
2023/05/26 04:37:21;;;;;;;11.82;2.95;;;8.70;99.90;;;;;;4967578;28;20046;-81
2023/05/26 04:39:47;;;;;;;20.33;2.87;;;8.80;99.90;;;;;;4952321;28;20494;-81
2023/05/26 04:42:12;;;;;;;16.30;2.87;;;8.80;99.90;;;;;;4984139;28;20058;-82
2023/05/26 04:44:40;;;;;;;13.57;3.57;;;8.80;99.90;;;;;;4952895;28;20117;-81
2023/05/26 04:47:08;;;;;;;11.15;2.38;;;8.90;99.90;;;;;;4947338;28;20031;-81
2023/05/26 04:49:37;;;;;;;15.23;2.65;;;9.00;99.90;;;;;;4970729;28;20414;-81
2023/05/26 04:52:03;;;;;;;18.50;2.58;;;9.00;99.90;;;;;;4969739;28;20035;-82
2023/05/26 04:54:29;;;;;;;15.85;3.13;;;9.20;99.90;;;;;;4985813;28;20043;-82
2023/05/26 04:56:55;;;;;;;16.25;3.25;;;9.10;99.90;;;;;;4968734;28;20189;-82
2023/05/26 04:59:23;;;;;;;15.20;2.70;;;9.20;99.90;;;;;;4972210;28;20039;-82
2023/05/26 05:01:50;;;;;;;14.48;3.08;;;9.20;99.90;;;;;;4966757;28;20578;-82
2023/05/26 05:04:16;;;;;;;12.75;2.63;;;9.20;99.90;;;;;;4954339;28;20078;-80
2023/05/26 05:06:43;;;;;;;15.27;2.53;;;9.30;99.90;;;;;;4969492;28;20042;-81
2023/05/26 05:09:12;;;;;;;9.73;2.50;;;9.40;99.90;;;;;;4968363;28;20595;-81
2023/05/26 05:11:37;;;;;;;12.17;3.27;;;9.50;99.90;;;;;;4967848;28;20081;-81
2023/05/26 05:14:03;;;;;;;16.20;3.00;;;9.50;99.90;;;;;;4969826;28;20039;-83
2023/05/26 05:16:28;;;;;;;22.97;2.93;;;9.60;99.90;;;;;;4971278;28;20042;-81
2023/05/26 05:18:54;;;;;;;13.07;2.63;;;9.70;99.90;;;;;;4972039;28;20446;-81
2023/05/26 05:21:21;;;;;;;11.40;2.00;;;9.70;99.90;;;;;;4966152;28;20493;-83
2023/05/26 05:23:46;;;;;;;10.82;3.03;;;9.70;99.90;;;;;;4966361;28;20043;-81
2023/05/26 05:26:12;;;;;;;15.75;3.58;;;9.80;99.90;;;;;;4966318;28;20414;-82
2023/05/26 05:28:38;;;;;;;17.50;3.63;;;9.80;99.90;;;;;;4981070;28;20426;-81
2023/05/26 05:31:04;;;;;;;12.63;3.03;;;9.90;99.90;;;;;;4952901;28;20042;-80
2023/05/26 05:33:31;;;;;;;9.73;2.65;;;9.90;99.90;;;;;;4968207;28;20280;-78
2023/05/26 05:35:57;;;;;;;9.70;2.40;;;10.00;99.90;;;;;;4967166;28;20047;-81
2023/05/26 05:38:23;;;;;;;12.23;3.27;;;10.10;99.90;;;;;;4968744;28;20050;-82
2023/05/26 05:40:48;;;;;;;14.77;2.73;;;10.10;99.90;;;;;;4968112;28;20382;-81
2023/05/26 05:43:14;;;;;;;10.07;2.80;;;10.20;99.90;;;;;;4969364;28;20134;-82
2023/05/26 05:45:40;;;;;;;15.10;2.90;;;10.30;99.90;;;;;;4985288;28;20530;-82
2023/05/26 05:48:05;;;;;;;17.13;2.83;;;10.40;99.90;;;;;;4965666;28;20069;-83
2023/05/26 05:50:31;;;;;;;12.60;2.47;;;10.40;99.90;;;;;;4969478;28;20086;-82
2023/05/26 05:52:57;;;;;;;15.40;2.22;;;10.50;99.90;;;;;;4968825;28;20498;-81
2023/05/26 05:55:22;;;;;;;23.97;2.80;;;10.60;99.90;;;;;;4967468;28;20073;-81
2023/05/26 05:57:52;;;;;;;15.67;3.07;;;10.70;99.90;;;;;;4983808;28;20422;-82
2023/05/26 06:00:18;;;;;;;13.73;3.28;;;10.80;99.90;;;;;;4966095;28;20047;-81
2023/05/26 06:02:43;;;;;;;15.68;2.20;;;10.80;99.90;;;;;;4966392;28;20066;-79
2023/05/26 06:05:09;;;;;;;10.73;2.23;;;10.90;99.90;;;;;;4966815;28;20042;-82
2023/05/26 06:07:35;;;;;;;14.05;2.75;;;11.10;99.90;;;;;;4968838;28;20046;-81
2023/05/26 06:10:00;;;;;;;11.57;3.07;;;11.10;99.90;;;;;;4967793;28;20426;-82
2023/05/26 06:12:26;;;;;;;13.63;2.27;;;11.20;99.90;;;;;;4964092;28;20271;-82
2023/05/26 06:14:51;;;;;;;20.03;4.40;;;11.20;99.90;;;;;;4953371;28;20042;-81
2023/05/26 06:17:17;;;;;;;11.10;2.80;;;11.30;99.90;;;;;;4982914;28;20035;-82
2023/05/26 06:19:43;;;;;;;15.77;2.13;;;11.40;99.90;;;;;;4969889;28;20042;-82
2023/05/26 06:22:08;;;;;;;11.73;2.40;;;11.40;99.90;;;;;;4968304;28;20034;-79
2023/05/26 06:24:34;;;;;;;12.00;2.60;;;11.50;99.90;;;;;;4968001;28;20520;-82
2023/05/26 06:26:59;;;;;;;15.85;2.53;;;11.50;99.90;;;;;;4963281;28;20052;-82
2023/05/26 06:29:25;;;;;;;14.37;2.90;;;11.60;99.90;;;;;;4951059;28;20070;-82
2023/05/26 06:31:51;;;;;;;13.53;2.97;;;11.70;99.90;;;;;;4969265;28;20105;-81
2023/05/26 06:34:16;;;;;;;20.13;2.60;;;11.80;99.90;;;;;;4969746;28;20283;-81
2023/05/26 06:36:42;;;;;;;17.10;2.57;;;11.90;99.90;;;;;;4968385;28;20048;-80
2023/05/26 06:39:07;;;;;;;16.30;2.80;;;11.90;99.90;;;;;;4969681;28;20041;-82
2023/05/26 06:41:33;;;;;;;13.83;2.50;;;12.00;99.90;;;;;;4970888;28;20046;-82
2023/05/26 06:43:59;;;;;;;14.33;3.23;;;12.00;99.90;;;;;;4985824;28;20498;-81
2023/05/26 06:46:24;;;;;;;15.67;3.40;;;12.00;99.90;;;;;;4970846;28;20502;-81
2023/05/26 06:48:53;;;;;;;10.38;1.98;;;12.20;99.90;;;;;;5006068;22;20046;-72
2023/05/26 06:51:19;;;;;;;13.02;2.85;;;12.20;99.90;;;;;;4982403;28;20043;-72
2023/05/26 06:53:45;;;;;;;7.72;2.13;;;12.20;99.90;;;;;;4975126;28;20056;-73
2023/05/26 06:56:11;;;;;;;12.67;2.27;;;12.30;99.90;;;;;;4980319;28;20050;-72
2023/05/26 06:58:37;;;;;;;11.98;2.17;;;12.40;99.90;;;;;;4982825;28;20404;-72
2023/05/26 07:01:03;;;;;;;11.97;2.30;;;12.40;99.90;;;;;;4981418;28;20060;-72
2023/05/26 07:03:30;;;;;;;15.07;2.63;;;12.50;99.90;;;;;;4974314;28;21862;-72
2023/05/26 07:05:56;;;;;;;9.48;1.92;;;12.60;99.90;;;;;;4981221;28;20073;-72
2023/05/26 07:08:23;;;;;;;11.23;2.67;;;12.60;99.90;;;;;;4983075;28;20043;-72
2023/05/26 07:10:49;;;;;;;10.07;2.03;;;12.70;99.90;;;;;;4994313;28;20128;-72
2023/05/26 07:13:15;;;;;;;10.05;2.22;;;12.70;99.90;;;;;;4976418;28;20073;-72
2023/05/26 07:15:41;;;;;;;12.52;2.13;;;12.80;99.90;;;;;;4984908;28;20042;-72
2023/05/26 07:18:08;;;;;;;10.80;2.20;;;12.80;99.90;;;;;;4986931;28;20038;-73
2023/05/26 07:20:33;;;;;;;9.90;2.13;;;12.80;99.90;;;;;;4965992;28;20459;-71
2023/05/26 07:22:59;;;;;;;15.73;2.03;;;12.90;99.90;;;;;;4982768;28;20046;-72
2023/05/26 07:25:25;;;;;;;6.22;1.90;;;12.90;99.90;;;;;;4986015;28;20365;-73
2023/05/26 07:27:51;;;;;;;10.07;2.85;;;13.00;99.90;;;;;;4992781;28;20034;-75
2023/05/26 07:30:17;;;;;;;11.93;2.15;;;13.00;99.90;;;;;;4979106;28;20053;-72
2023/05/26 07:32:43;;;;;;;;;;;13.10;99.90;;;;;;4981651;28;20479;-79
2023/05/26 07:35:09;;;;;;;9.95;1.75;;;13.20;99.90;;;;;;4983696;28;19926;-73
2023/05/26 07:37:35;;;;;;;13.55;2.45;;;13.20;99.90;;;;;;4986339;28;20066;-75
2023/05/26 07:40:02;;;;;;;7.78;2.00;;;13.20;99.90;;;;;;4998721;28;20054;-71
2023/05/26 07:42:28;;;;;;;15.77;2.33;;;13.30;99.90;;;;;;4998291;28;20042;-73
2023/05/26 07:44:55;;;;;;;12.10;2.27;;;13.40;99.90;;;;;;4982922;28;20100;-72
2023/05/26 07:47:21;;;;;;;8.15;1.77;;;13.50;99.90;;;;;;4977712;28;20841;-72
2023/05/26 07:49:47;;;;;;;9.55;1.80;;;13.50;99.90;;;;;;4975406;28;20069;-75
2023/05/26 07:52:13;;;;;;;6.40;1.93;;;13.50;99.90;;;;;;4960137;28;20441;-74
2023/05/26 07:54:40;;;;;;;16.33;2.13;;;13.60;99.90;;;;;;4963886;28;20391;-72
2023/05/26 07:57:05;;;;;;;12.30;1.90;;;13.70;99.90;;;;;;4972745;28;20066;-72
2023/05/26 07:59:32;;;;;;;11.03;2.83;;;13.80;99.90;;;;;;4998274;28;20532;-71
2023/05/26 08:01:58;;;;;;;14.13;2.13;;;13.80;99.90;;;;;;4974907;28;20275;-71
2023/05/26 08:04:24;;;;;;;7.45;2.10;;;13.90;99.90;;;;;;4979925;28;20414;-71
2023/05/26 08:06:49;;;;;;;11.70;2.58;;;13.90;99.90;;;;;;4975274;28;20169;-72
2023/05/26 08:09:15;;;;;;;11.25;1.90;;;14.00;99.90;;;;;;4975629;28;20122;-71
2023/05/26 08:11:41;;;;;;;17.05;3.03;;;14.10;99.90;;;;;;4977720;28;20050;-71
2023/05/26 08:14:07;;;;;;;9.90;2.40;;;14.20;99.90;;;;;;4980682;28;20118;-69
2023/05/26 08:16:32;;;;;;;9.32;2.25;;;14.20;99.90;;;;;;4983110;28;20068;-68
2023/05/26 08:18:58;;;;;;;14.10;2.07;;;14.30;99.90;;;;;;4979673;28;20485;-70
2023/05/26 08:21:24;;;;;;;9.93;2.87;;;14.40;99.90;;;;;;4977588;28;20300;-70
2023/05/26 08:23:49;;;;;;;12.85;2.65;;;14.40;99.90;;;;;;5002576;28;20129;-70
2023/05/26 08:26:15;;;;;;;10.07;1.47;;;14.50;99.90;;;;;;4980293;28;20093;-69
2023/05/26 08:28:41;;;;;;;13.75;2.05;;;14.60;99.90;;;;;;4978033;28;20104;-69
2023/05/26 08:31:06;;;;;;;10.05;1.75;;;14.70;99.90;;;;;;4995321;28;20125;-69
2023/05/26 08:33:32;;;;;;;11.00;1.75;;;14.80;99.90;;;;;;4961201;28;20045;-68
2023/05/26 08:35:58;;;;;;;10.35;2.25;;;14.80;99.90;;;;;;4977032;28;20050;-70
2023/05/26 08:38:24;;;;;;;7.32;1.60;;;14.90;99.90;;;;;;4993420;28;20082;-68
2023/05/26 08:40:55;;;;;;;9.05;2.72;;;14.90;99.90;;;;;;4974462;28;20065;-69
2023/05/26 08:43:26;;;;;;;8.35;2.03;;;15.00;99.90;;;;;;4977020;28;20050;-70
2023/05/26 08:45:53;;;;;;;10.27;2.10;;;15.10;99.90;;;;;;4980452;28;20302;-70
2023/05/26 08:48:20;;;;;;;18.60;2.70;;;15.20;99.90;;;;;;4980486;28;20411;-70
2023/05/26 08:50:53;;;;;;;9.82;1.67;;;15.20;99.90;;;;;;4993755;28;20455;-70
2023/05/26 08:53:20;;;;;;;15.10;2.42;;;15.20;99.90;;;;;;4994238;28;20101;-70
2023/05/26 08:55:45;;;;;;;;;;;15.30;99.90;;;;;;4980159;28;20045;-70
2023/05/26 08:58:12;;;;;;;8.30;1.65;;;15.30;99.90;;;;;;5001399;28;19921;-70
2023/05/26 09:00:40;;;;;;;;;;;15.40;99.90;;;;;;4996436;28;20452;-70
2023/05/26 09:03:07;;;;;;;8.95;2.13;;;15.50;99.90;;;;;;4980090;28;19972;-70
2023/05/26 09:05:34;;;;;;;10.77;2.40;;;15.50;99.90;;;;;;4980464;28;20400;-70
2023/05/26 09:08:00;;;;;;;;;;;15.50;99.90;;;;;;4976382;28;20400;-69
2023/05/26 09:10:29;;;;;;;14.32;2.72;;;15.60;99.90;;;;;;4978444;28;19925;-69
2023/05/26 09:13:03;;;;;;;7.63;2.10;;;15.60;99.90;;;;;;4979049;28;20460;-69
2023/05/26 09:15:29;;;;;;;11.23;1.83;;;15.70;99.90;;;;;;4976660;28;20034;-69
2023/05/26 09:18:02;;;;;;;10.77;2.42;;;15.80;99.90;;;;;;4979077;28;20054;-70
2023/05/26 09:20:29;;;;;;;12.43;2.15;;;15.80;99.90;;;;;;4971820;28;20066;-70
2023/05/26 09:22:58;;;;;;;10.95;2.10;;;15.90;99.90;;;;;;4979293;28;20416;-69
2023/05/26 09:25:34;;;;;;;12.00;2.00;;;15.90;99.90;;;;;;4978594;28;20046;-70
2023/05/26 09:28:02;;;;;;;9.27;2.25;;;16.00;99.90;;;;;;4973503;28;20495;-69
2023/05/26 09:30:33;;;;;;;8.38;2.05;;;15.90;99.90;;;;;;4973973;28;20046;-69
2023/05/26 09:32:59;;;;;;;10.35;1.95;;;16.00;99.90;;;;;;4979871;28;20049;-70
2023/05/26 09:35:25;;;;;;;5.75;1.88;;;16.10;99.90;;;;;;4993276;28;20361;-69
2023/05/26 09:37:50;;;;;;;7.95;1.67;;;16.20;99.90;;;;;;4990164;28;20212;-70
2023/05/26 09:40:20;;;;;;;6.30;1.73;;;16.30;99.90;;;;;;4981172;28;20050;-68
2023/05/26 09:42:53;;;;;;;9.15;2.85;;;16.30;99.90;;;;;;4978747;28;20296;-69
2023/05/26 09:45:19;;;;;;;9.82;2.00;;;16.50;99.90;;;;;;4973942;28;20054;-69
2023/05/26 09:47:45;;;;;;;9.10;1.88;;;16.30;99.90;;;;;;4979391;28;20052;-69
2023/05/26 09:50:11;;;;;;;8.50;2.10;;;16.40;99.90;;;;;;4972448;28;20126;-73
2023/05/26 09:52:36;;;;;;;12.02;2.00;;;16.30;99.90;;;;;;5002032;28;20038;-69
2023/05/26 09:55:03;;;;;;;8.55;2.13;;;16.50;99.90;;;;;;4979991;28;20046;-68
2023/05/26 09:57:30;;;;;;;8.05;1.85;;;16.50;99.90;;;;;;4995656;28;20041;-69
2023/05/26 09:59:57;;;;;;;9.68;2.13;;;16.60;99.90;;;;;;4995683;28;20079;-68
2023/05/26 10:02:23;;;;;;;;;;;16.60;99.70;;;;;;4994543;28;20046;-71
2023/05/26 10:04:50;;;;;;;6.90;2.25;;;16.70;99.90;;;;;;4977952;28;19917;-72
2023/05/26 10:07:18;;;;;;;7.90;2.08;;;16.70;99.60;;;;;;4976987;28;20066;-69
2023/05/26 10:10:04;;;;;;;9.00;2.10;;;16.80;98.60;;;;;;4978231;28;20129;-68
2023/05/26 10:12:32;;;;;;;9.68;2.30;;;16.80;99.30;;;;;;4973847;28;20334;-69
2023/05/26 10:14:58;;;;;;;10.65;2.33;;;16.90;99.30;;;;;;4979149;28;20045;-68
2023/05/26 10:17:25;;;;;;;13.38;2.13;;;17.00;99.20;;;;;;4978722;28;20042;-68
2023/05/26 10:19:55;;;;;;;11.38;1.80;;;17.10;98.60;;;;;;4982833;28;20046;-69
2023/05/26 10:22:40;;;;;;;11.48;2.13;;;17.20;98.30;;;;;;4986563;28;20121;-69
2023/05/26 10:25:33;;;;;;;14.93;2.63;;;17.30;97.10;;;;;;4982430;28;20480;-68
2023/05/26 10:28:17;;;;;;;8.32;2.20;;;17.30;96.10;;;;;;4984523;28;20081;-68
2023/05/26 10:30:43;;;;;;;7.93;1.83;;;17.30;95.70;;;;;;4985435;28;20038;-68
2023/05/26 10:33:11;;;;;;;9.68;2.08;;;17.20;96.20;;;;;;4988380;28;20448;-68
2023/05/26 10:35:37;;;;;;;11.23;2.25;;;17.20;96.10;;;;;;4986748;28;20549;-69
2023/05/26 10:38:03;;;;;;;7.90;1.98;;;17.20;95.60;;;;;;4977001;28;20299;-68
2023/05/26 10:40:40;;;;;;;9.32;2.05;;;17.30;96.00;;;;;;4982785;28;20376;-68
2023/05/26 10:43:23;;;;;;;9.70;1.80;;;17.50;95.40;;;;;;4966066;28;20601;-69
2023/05/26 10:45:57;;;;;;;7.20;2.35;;;17.50;95.50;;;;;;4975319;28;20530;-68
2023/05/26 10:48:54;;;;;;;11.82;2.45;;;17.50;96.50;;;;;;5000600;28;20466;-68
2023/05/26 10:51:32;;;;;;;8.15;2.42;;;17.70;96.70;;;;;;5000009;28;20045;-68
2023/05/26 10:53:59;;;;;;;8.95;2.40;;;17.90;96.00;;;;;;4997157;28;20057;-68
2023/05/26 10:56:40;;;;;;;13.00;2.60;;;18.00;96.20;;;;;;5003220;28;20038;-68
2023/05/26 10:59:06;;;;;;;10.90;2.40;;;18.10;95.60;;;;;;4985142;28;20247;-68
2023/05/26 11:01:33;;;;;;;10.10;2.08;;;18.20;95.10;;;;;;4985605;28;20333;-68
2023/05/26 11:04:04;;;;;;;7.82;2.17;;;18.20;94.30;;;;;;4977278;28;20050;-69
2023/05/26 11:06:52;;;;;;;9.88;2.20;;;18.30;93.30;;;;;;4981139;28;20126;-68
2023/05/26 11:09:22;;;;;;;11.20;2.50;;;18.20;92.60;;;;;;4978914;28;20082;-68
2023/05/26 11:11:49;;;;;;;13.73;2.20;;;18.10;91.90;;;;;;4995444;28;20042;-68
2023/05/26 11:14:15;;;;;;;7.95;2.05;;;18.10;92.30;;;;;;4984579;28;20038;-69
2023/05/26 11:16:45;;;;;;;11.35;2.03;;;18.10;92.10;;;;;;4989237;28;20046;-69
2023/05/26 11:19:11;;;;;;;14.05;2.50;;;18.10;92.10;;;;;;4985523;28;20054;-70
2023/05/26 11:21:38;;;;;;;12.30;2.20;;;18.20;92.70;;;;;;4982682;28;20042;-68
2023/05/26 11:24:05;;;;;;;10.55;2.67;;;18.30;93.00;;;;;;4980162;28;20050;-68
2023/05/26 11:26:32;;;;;;;10.95;2.45;;;18.40;92.20;;;;;;5007557;28;20498;-67
2023/05/26 11:29:01;;;;;;;12.20;2.35;;;18.40;92.20;;;;;;4974140;28;20046;-68
2023/05/26 11:31:27;;;;;;;10.98;2.22;;;18.40;92.00;;;;;;4965783;28;20042;-71
2023/05/26 11:33:53;;;;;;;9.23;1.90;;;18.50;91.50;;;;;;5005283;28;20049;-71
2023/05/26 11:36:20;;;;;;;8.27;1.80;;;18.40;91.40;;;;;;5001592;28;20050;-70
2023/05/26 11:38:50;;;;;;;9.32;2.20;;;18.50;90.50;;;;;;5006134;28;20050;-69
2023/05/26 11:41:16;;;;;;;13.70;2.13;;;18.50;90.70;;;;;;4986171;28;20042;-68
2023/05/26 11:43:45;;;;;;;;;;;18.50;90.70;;;;;;4984849;28;20046;-68
2023/05/26 11:46:14;;;;;;;5.70;1.77;;;18.50;90.50;;;;;;4982882;28;20403;-68
2023/05/26 11:48:41;;;;;;;12.95;2.63;;;18.50;90.50;;;;;;4987525;28;20485;-68
2023/05/26 11:51:19;;;;;;;14.55;2.28;;;18.60;90.30;;;;;;4981275;28;20049;-69
2023/05/26 11:53:47;;;;;;;11.35;2.28;;;18.60;88.10;;;;;;4982513;28;20054;-68
2023/05/26 11:56:16;;;;;;;8.68;2.30;;;18.50;89.70;;;;;;4984701;28;20046;-69
2023/05/26 11:58:43;;;;;;;11.23;2.50;;;18.40;89.60;;;;;;4981473;28;20361;-69
2023/05/26 12:01:10;;;;;;;8.55;2.38;;;18.50;91.10;;;;;;4981116;28;20066;-68
2023/05/26 12:03:42;;;;;;;10.25;2.85;;;18.50;91.10;;;;;;4979576;28;20038;-68
2023/05/26 12:06:18;;;;;;;18.50;3.33;;;18.40;90.80;;;;;;4983633;28;20520;-68
2023/05/26 12:09:20;;;;;;;10.48;2.30;;;18.30;90.90;;;;;;4981933;28;20046;-68
2023/05/26 12:11:47;;;;;;;11.88;2.40;;;18.20;91.40;;;;;;4982890;28;20050;-68
2023/05/26 12:14:14;;;;;;;11.77;2.78;;;18.30;91.60;;;;;;4983799;28;20069;-68
2023/05/26 12:16:50;;;;;;;8.18;2.28;;;18.40;91.70;;;;;;4997384;28;20046;-68
2023/05/26 12:19:23;;;;;;;13.82;2.95;;;18.50;90.80;;;;;;4985939;28;20046;-68
2023/05/26 12:22:00;;;;;;;8.23;2.20;;;18.50;90.50;;;;;;4999059;28;20523;-68
2023/05/26 12:24:29;;;;;;;;;;;18.50;91.10;;;;;;4981038;28;20728;-70
2023/05/26 12:26:55;;;;;;;13.10;2.47;;;18.70;90.80;;;;;;4986115;28;20024;-73
2023/05/26 12:29:20;;;;;;;11.63;2.72;;;18.80;90.10;;;;;;4981476;28;20152;-71
2023/05/26 12:31:51;;;;;;;8.05;2.28;;;18.80;90.10;;;;;;4974384;28;20089;-74
2023/05/26 12:34:23;;;;;;;8.55;2.08;;;18.80;89.70;;;;;;4979116;28;20135;-69
2023/05/26 12:36:50;;;;;;;10.27;2.55;;;18.70;89.40;;;;;;4977040;28;20488;-69
2023/05/26 12:39:17;;;;;;;13.68;2.85;;;18.50;88.40;;;;;;4971517;28;20577;-69
2023/05/26 12:41:45;;;;;;;13.88;2.67;;;18.40;89.00;;;;;;4965681;28;20085;-68
2023/05/26 12:44:14;;;;;;;6.28;1.73;;;18.50;87.40;;;;;;5000740;28;20085;-69
2023/05/26 12:46:41;;;;;;;7.88;2.00;;;18.50;87.10;;;;;;4982293;28;20095;-68
2023/05/26 12:49:07;;;;;;;10.95;1.92;;;18.60;87.30;;;;;;5000059;22;20238;-70
2023/05/26 12:51:34;;;;;;;8.15;2.25;;;18.60;87.50;;;;;;4995716;28;20045;-70